Helmetta, NJ

10:57 PM EDT on August 21, 2014 (GMT -0400)
KNJMONRO1 | Change Station
CLOSE
Current Station
Personal Weather Station
Location: MONROE TOWNSHIP, NJ
Elevation: 39 ft
Nearby Weather Stations

Elev 39 ft 40.37 °N, 74.38 °W | Updated 6 seconds ago

Light Thunderstorms and Rain
Light Thunderstorm Rain
70.3 °F
Feels Like 70.3 °F
N
0.0
Wind Variable Wind from SSE
Gusts 0.0 mph

Today
High -- | Low -- °F
--% Chance of Precip.
Yesterday
High -- | Low -- °F
Precip. -- in
6:14 AM 7:46 PM
Waning Crescent, 11% visible
Pressure 30.04 in
Visibility 10.0 miles
Clouds Scattered Clouds 2800 ft
Mostly Cloudy 3500 ft
Overcast 4200 ft
Dew Point 66 °F
Humidity 86%
Rainfall 0.00 in
Snow Depth Not available.
UV 0 out of 12
Pollen 8.70 out of 12
Air Quality Not available.
Flu Activity Not available.
METAR KLDJ 220235Z AUTO 14005KT 10SM -VCTSRA SCT028 BKN035 OVC042 25/20 A3004 RMK AO2 LTG DSNT NE AND NW T02490195

More Conditions Fewer Conditions

Pressure 30.04 in
Visibility 10.0 miles
Clouds Scattered Clouds 2800 ft
Mostly Cloudy 3500 ft
Overcast 4200 ft
Dew Point 66 °F
Humidity 86%
Rainfall 0.00 in
Snow Depth Not available.
UV 0 out of 12
Pollen 8.70 out of 12
Air Quality Not available.
Flu Activity Not available.
METAR KLDJ 220235Z AUTO 14005KT 10SM -VCTSRA SCT028 BKN035 OVC042 25/20 A3004 RMK AO2 LTG DSNT NE AND NW T02490195

More Conditions Fewer Conditions

10-Day Weather Forecast

Almanac

Astronomy

Aug. 21, 2014 Rise Set
Actual Time 6:14 AM EDT 7:46 PM EDT
Civil Twilight 5:45 AM EDT 8:15 PM EDT
Nautical Twilight 5:11 AM EDT 8:49 PM EDT
Astronomical Twilight 4:34 AM EDT 9:26 PM EDT
Moon 2:42 AM EDT (8/21) 5:13 PM EDT (8/21)
Length of Visible Light 14h 29m
Length of Day
13h 32m
Tomorrow will be 2m 27s shorter.
Waning Crescent, 11% of the Moon is Illuminated
Today
Waning Crescent
Aug 25
New
Sep 2
First Quarter
Sep 8
Full
Sep 15
Last Quarter

Today's Extremes

State Highs State Lows

Community

WunderPhotos

Upload Photos

1,746,109 photos uploaded!

WunderBlogs® & News

Nearby

Snow Depth

Station Depth Elevation
No new snow has been reported.

Earthquake Activity

City Distance Mag. Time & Date
No recent earthquake activity has been reported nearby.
Minimum magnitude displayed is 2.5.

Coastal Water Temperatures

Place Temperature
Sandy Hook, NJ 75.0 °F
The Battery, NY 73.0 °F
Bergen Point West Reach, NJ 73.9 °F
Kings Point, NY 73.0 °F

Nearby Weather Stations